sensor_id;sensor_type;location;lat;lon;timestamp;P1;durP1;ratioP1;P2;durP2;ratioP2
6406;SDS011;3236;51.022;6.818;2023-04-25T00:00:14;21.83;;;6.05;;
6406;SDS011;3236;51.022;6.818;2023-04-25T00:02:42;20.20;;;5.88;;
6406;SDS011;3236;51.022;6.818;2023-04-25T00:05:11;15.65;;;6.10;;
6406;SDS011;3236;51.022;6.818;2023-04-25T00:07:40;19.17;;;5.68;;
6406;SDS011;3236;51.022;6.818;2023-04-25T00:10:08;13.25;;;5.88;;
6406;SDS011;3236;51.022;6.818;2023-04-25T00:12:37;18.15;;;5.88;;
6406;SDS011;3236;51.022;6.818;2023-04-25T00:15:05;21.50;;;6.28;;
6406;SDS011;3236;51.022;6.818;2023-04-25T00:17:33;13.93;;;5.63;;
6406;SDS011;3236;51.022;6.818;2023-04-25T00:20:01;20.98;;;5.85;;
6406;SDS011;3236;51.022;6.818;2023-04-25T00:22:32;20.55;;;5.93;;
6406;SDS011;3236;51.022;6.818;2023-04-25T00:24:59;11.45;;;5.53;;
6406;SDS011;3236;51.022;6.818;2023-04-25T00:27:28;14.75;;;5.75;;
6406;SDS011;3236;51.022;6.818;2023-04-25T00:29:55;19.85;;;5.60;;
6406;SDS011;3236;51.022;6.818;2023-04-25T00:32:22;18.80;;;6.35;;
6406;SDS011;3236;51.022;6.818;2023-04-25T00:34:49;16.73;;;5.70;;
6406;SDS011;3236;51.022;6.818;2023-04-25T00:37:16;20.88;;;7.80;;
6406;SDS011;3236;51.022;6.818;2023-04-25T00:39:44;14.85;;;5.30;;
6406;SDS011;3236;51.022;6.818;2023-04-25T00:42:11;19.05;;;6.55;;
6406;SDS011;3236;51.022;6.818;2023-04-25T00:44:38;17.42;;;6.00;;
6406;SDS011;3236;51.022;6.818;2023-04-25T00:47:06;21.92;;;6.05;;
6406;SDS011;3236;51.022;6.818;2023-04-25T00:49:35;18.02;;;6.03;;
6406;SDS011;3236;51.022;6.818;2023-04-25T00:52:06;19.02;;;5.70;;
6406;SDS011;3236;51.022;6.818;2023-04-25T00:54:33;22.50;;;6.55;;
6406;SDS011;3236;51.022;6.818;2023-04-25T00:57:02;20.23;;;5.80;;
6406;SDS011;3236;51.022;6.818;2023-04-25T00:59:29;19.10;;;6.72;;
6406;SDS011;3236;51.022;6.818;2023-04-25T01:01:57;16.90;;;5.85;;
6406;SDS011;3236;51.022;6.818;2023-04-25T01:04:25;12.05;;;6.13;;
6406;SDS011;3236;51.022;6.818;2023-04-25T01:06:53;12.85;;;5.10;;
6406;SDS011;3236;51.022;6.818;2023-04-25T01:09:20;18.55;;;6.30;;
6406;SDS011;3236;51.022;6.818;2023-04-25T01:11:48;16.45;;;5.78;;
6406;SDS011;3236;51.022;6.818;2023-04-25T01:14:17;15.63;;;6.20;;
6406;SDS011;3236;51.022;6.818;2023-04-25T01:16:44;17.48;;;7.05;;
6406;SDS011;3236;51.022;6.818;2023-04-25T01:19:11;24.67;;;5.55;;
6406;SDS011;3236;51.022;6.818;2023-04-25T01:21:50;17.90;;;5.78;;
6406;SDS011;3236;51.022;6.818;2023-04-25T01:24:18;19.88;;;5.90;;
6406;SDS011;3236;51.022;6.818;2023-04-25T01:26:45;21.00;;;6.07;;
6406;SDS011;3236;51.022;6.818;2023-04-25T01:29:14;23.95;;;6.75;;
6406;SDS011;3236;51.022;6.818;2023-04-25T01:31:43;22.25;;;6.00;;
6406;SDS011;3236;51.022;6.818;2023-04-25T01:34:12;18.10;;;5.33;;
6406;SDS011;3236;51.022;6.818;2023-04-25T01:36:43;21.95;;;5.93;;
6406;SDS011;3236;51.022;6.818;2023-04-25T01:39:11;19.63;;;5.07;;
6406;SDS011;3236;51.022;6.818;2023-04-25T01:41:38;17.45;;;5.95;;
6406;SDS011;3236;51.022;6.818;2023-04-25T01:44:06;21.92;;;5.85;;
6406;SDS011;3236;51.022;6.818;2023-04-25T01:46:36;16.88;;;5.85;;
6406;SDS011;3236;51.022;6.818;2023-04-25T01:49:03;21.70;;;5.50;;
6406;SDS011;3236;51.022;6.818;2023-04-25T01:51:31;16.75;;;5.90;;
6406;SDS011;3236;51.022;6.818;2023-04-25T01:54:00;22.92;;;7.05;;
6406;SDS011;3236;51.022;6.818;2023-04-25T01:56:36;17.48;;;5.90;;
6406;SDS011;3236;51.022;6.818;2023-04-25T01:59:03;19.42;;;5.60;;
6406;SDS011;3236;51.022;6.818;2023-04-25T02:01:31;19.83;;;5.43;;
6406;SDS011;3236;51.022;6.818;2023-04-25T02:03:58;15.52;;;5.75;;
6406;SDS011;3236;51.022;6.818;2023-04-25T02:06:25;15.65;;;6.32;;
6406;SDS011;3236;51.022;6.818;2023-04-25T02:08:52;17.17;;;6.78;;
6406;SDS011;3236;51.022;6.818;2023-04-25T02:11:19;15.52;;;5.93;;
6406;SDS011;3236;51.022;6.818;2023-04-25T02:13:47;16.75;;;5.78;;
6406;SDS011;3236;51.022;6.818;2023-04-25T02:16:14;19.08;;;5.53;;
6406;SDS011;3236;51.022;6.818;2023-04-25T02:18:42;15.48;;;6.60;;
6406;SDS011;3236;51.022;6.818;2023-04-25T02:21:10;18.65;;;6.25;;
6406;SDS011;3236;51.022;6.818;2023-04-25T02:23:37;19.60;;;6.70;;
6406;SDS011;3236;51.022;6.818;2023-04-25T02:26:04;17.67;;;5.75;;
6406;SDS011;3236;51.022;6.818;2023-04-25T02:28:31;20.25;;;5.97;;
6406;SDS011;3236;51.022;6.818;2023-04-25T02:31:00;16.48;;;4.97;;
6406;SDS011;3236;51.022;6.818;2023-04-25T02:33:27;16.98;;;5.97;;
6406;SDS011;3236;51.022;6.818;2023-04-25T02:35:57;21.88;;;5.35;;
6406;SDS011;3236;51.022;6.818;2023-04-25T02:38:24;15.45;;;4.72;;
6406;SDS011;3236;51.022;6.818;2023-04-25T02:40:54;12.07;;;5.25;;
6406;SDS011;3236;51.022;6.818;2023-04-25T02:43:22;19.38;;;6.20;;
6406;SDS011;3236;51.022;6.818;2023-04-25T02:45:49;12.27;;;4.97;;
6406;SDS011;3236;51.022;6.818;2023-04-25T02:48:17;20.50;;;5.82;;
6406;SDS011;3236;51.022;6.818;2023-04-25T02:50:44;20.50;;;5.07;;
6406;SDS011;3236;51.022;6.818;2023-04-25T02:53:11;14.93;;;5.45;;
6406;SDS011;3236;51.022;6.818;2023-04-25T02:55:38;16.65;;;5.53;;
6406;SDS011;3236;51.022;6.818;2023-04-25T02:58:13;15.98;;;5.30;;
6406;SDS011;3236;51.022;6.818;2023-04-25T03:00:41;16.13;;;5.40;;
6406;SDS011;3236;51.022;6.818;2023-04-25T03:03:08;12.73;;;5.18;;
6406;SDS011;3236;51.022;6.818;2023-04-25T03:05:36;16.00;;;5.20;;
6406;SDS011;3236;51.022;6.818;2023-04-25T03:08:04;11.35;;;5.32;;
6406;SDS011;3236;51.022;6.818;2023-04-25T03:10:34;9.75;;;4.47;;
6406;SDS011;3236;51.022;6.818;2023-04-25T03:13:01;14.65;;;5.55;;
6406;SDS011;3236;51.022;6.818;2023-04-25T03:15:29;14.02;;;5.28;;
6406;SDS011;3236;51.022;6.818;2023-04-25T03:18:00;11.32;;;4.95;;
6406;SDS011;3236;51.022;6.818;2023-04-25T03:20:28;18.92;;;5.45;;
6406;SDS011;3236;51.022;6.818;2023-04-25T03:22:56;17.63;;;5.15;;
6406;SDS011;3236;51.022;6.818;2023-04-25T03:25:23;19.65;;;5.93;;
6406;SDS011;3236;51.022;6.818;2023-04-25T03:27:53;19.30;;;6.35;;
6406;SDS011;3236;51.022;6.818;2023-04-25T03:30:21;18.98;;;6.93;;
6406;SDS011;3236;51.022;6.818;2023-04-25T03:32:48;19.80;;;5.70;;
6406;SDS011;3236;51.022;6.818;2023-04-25T03:35:15;19.58;;;5.82;;
6406;SDS011;3236;51.022;6.818;2023-04-25T03:37:42;18.70;;;5.45;;
6406;SDS011;3236;51.022;6.818;2023-04-25T03:40:12;16.92;;;5.40;;
6406;SDS011;3236;51.022;6.818;2023-04-25T03:42:39;17.63;;;6.50;;
6406;SDS011;3236;51.022;6.818;2023-04-25T03:45:06;16.85;;;5.53;;
6406;SDS011;3236;51.022;6.818;2023-04-25T03:47:34;16.92;;;5.95;;
6406;SDS011;3236;51.022;6.818;2023-04-25T03:50:01;16.23;;;5.72;;
6406;SDS011;3236;51.022;6.818;2023-04-25T03:52:29;20.63;;;6.32;;
6406;SDS011;3236;51.022;6.818;2023-04-25T03:54:56;24.02;;;6.15;;
6406;SDS011;3236;51.022;6.818;2023-04-25T03:57:24;18.35;;;6.28;;
6406;SDS011;3236;51.022;6.818;2023-04-25T03:59:51;17.35;;;5.78;;
6406;SDS011;3236;51.022;6.818;2023-04-25T04:02:19;18.88;;;6.72;;
6406;SDS011;3236;51.022;6.818;2023-04-25T04:04:46;18.63;;;5.28;;
6406;SDS011;3236;51.022;6.818;2023-04-25T04:07:19;19.90;;;6.95;;
6406;SDS011;3236;51.022;6.818;2023-04-25T04:09:49;19.38;;;5.72;;
6406;SDS011;3236;51.022;6.818;2023-04-25T04:12:16;29.17;;;7.03;;
6406;SDS011;3236;51.022;6.818;2023-04-25T04:14:44;20.20;;;6.55;;
6406;SDS011;3236;51.022;6.818;2023-04-25T04:17:11;17.67;;;5.90;;
6406;SDS011;3236;51.022;6.818;2023-04-25T04:19:38;18.02;;;6.70;;
6406;SDS011;3236;51.022;6.818;2023-04-25T04:22:09;21.60;;;6.72;;
6406;SDS011;3236;51.022;6.818;2023-04-25T04:24:36;17.83;;;6.13;;
6406;SDS011;3236;51.022;6.818;2023-04-25T04:27:04;20.45;;;5.93;;
6406;SDS011;3236;51.022;6.818;2023-04-25T04:29:31;15.13;;;6.53;;
6406;SDS011;3236;51.022;6.818;2023-04-25T04:31:59;16.75;;;6.05;;
6406;SDS011;3236;51.022;6.818;2023-04-25T04:34:28;21.38;;;6.90;;
6406;SDS011;3236;51.022;6.818;2023-04-25T04:36:56;23.52;;;7.35;;
6406;SDS011;3236;51.022;6.818;2023-04-25T04:39:23;24.48;;;7.10;;
6406;SDS011;3236;51.022;6.818;2023-04-25T04:41:50;14.98;;;6.40;;
6406;SDS011;3236;51.022;6.818;2023-04-25T04:44:17;21.70;;;6.88;;
6406;SDS011;3236;51.022;6.818;2023-04-25T04:46:44;18.63;;;5.88;;
6406;SDS011;3236;51.022;6.818;2023-04-25T04:49:13;18.88;;;6.50;;
6406;SDS011;3236;51.022;6.818;2023-04-25T04:51:40;17.05;;;6.82;;
6406;SDS011;3236;51.022;6.818;2023-04-25T04:54:12;16.60;;;5.63;;
6406;SDS011;3236;51.022;6.818;2023-04-25T04:56:39;17.60;;;6.13;;
6406;SDS011;3236;51.022;6.818;2023-04-25T04:59:10;18.30;;;6.90;;
6406;SDS011;3236;51.022;6.818;2023-04-25T05:01:37;22.25;;;7.07;;
6406;SDS011;3236;51.022;6.818;2023-04-25T05:04:04;17.23;;;6.50;;
6406;SDS011;3236;51.022;6.818;2023-04-25T05:06:33;17.98;;;6.10;;
6406;SDS011;3236;51.022;6.818;2023-04-25T05:09:00;19.38;;;6.07;;
6406;SDS011;3236;51.022;6.818;2023-04-25T05:11:28;16.65;;;4.97;;
6406;SDS011;3236;51.022;6.818;2023-04-25T05:13:57;18.35;;;6.72;;
6406;SDS011;3236;51.022;6.818;2023-04-25T05:16:25;14.75;;;6.30;;
6406;SDS011;3236;51.022;6.818;2023-04-25T05:18:52;23.30;;;6.78;;
6406;SDS011;3236;51.022;6.818;2023-04-25T05:21:19;18.30;;;5.78;;
6406;SDS011;3236;51.022;6.818;2023-04-25T05:23:48;18.17;;;6.25;;
6406;SDS011;3236;51.022;6.818;2023-04-25T05:26:15;21.63;;;6.10;;
6406;SDS011;3236;51.022;6.818;2023-04-25T05:28:42;27.05;;;6.32;;
6406;SDS011;3236;51.022;6.818;2023-04-25T05:31:13;19.55;;;6.00;;
6406;SDS011;3236;51.022;6.818;2023-04-25T05:33:40;22.88;;;6.90;;
6406;SDS011;3236;51.022;6.818;2023-04-25T05:36:07;11.77;;;5.07;;
6406;SDS011;3236;51.022;6.818;2023-04-25T05:38:35;25.30;;;5.93;;
6406;SDS011;3236;51.022;6.818;2023-04-25T05:41:03;22.13;;;5.40;;
6406;SDS011;3236;51.022;6.818;2023-04-25T05:43:30;20.92;;;5.65;;
6406;SDS011;3236;51.022;6.818;2023-04-25T05:45:58;30.73;;;7.20;;
6406;SDS011;3236;51.022;6.818;2023-04-25T05:48:25;26.00;;;6.05;;
6406;SDS011;3236;51.022;6.818;2023-04-25T05:50:52;19.70;;;4.80;;
6406;SDS011;3236;51.022;6.818;2023-04-25T05:53:22;23.58;;;5.85;;
6406;SDS011;3236;51.022;6.818;2023-04-25T05:55:49;14.05;;;5.07;;
6406;SDS011;3236;51.022;6.818;2023-04-25T05:58:18;16.58;;;5.93;;
6406;SDS011;3236;51.022;6.818;2023-04-25T06:00:45;25.80;;;5.60;;
6406;SDS011;3236;51.022;6.818;2023-04-25T06:03:21;22.27;;;5.00;;
6406;SDS011;3236;51.022;6.818;2023-04-25T06:05:49;17.17;;;5.20;;
6406;SDS011;3236;51.022;6.818;2023-04-25T06:08:19;16.95;;;6.63;;
6406;SDS011;3236;51.022;6.818;2023-04-25T06:10:46;18.77;;;5.10;;
6406;SDS011;3236;51.022;6.818;2023-04-25T06:13:13;16.92;;;4.70;;
6406;SDS011;3236;51.022;6.818;2023-04-25T06:15:42;15.93;;;4.90;;
6406;SDS011;3236;51.022;6.818;2023-04-25T06:18:10;25.98;;;4.45;;
6406;SDS011;3236;51.022;6.818;2023-04-25T06:20:37;20.52;;;4.30;;
6406;SDS011;3236;51.022;6.818;2023-04-25T06:23:04;19.23;;;4.95;;
6406;SDS011;3236;51.022;6.818;2023-04-25T06:25:31;20.25;;;3.80;;
6406;SDS011;3236;51.022;6.818;2023-04-25T06:27:58;47.10;;;12.48;;
6406;SDS011;3236;51.022;6.818;2023-04-25T06:30:29;16.55;;;3.97;;
6406;SDS011;3236;51.022;6.818;2023-04-25T06:32:57;34.55;;;5.00;;
6406;SDS011;3236;51.022;6.818;2023-04-25T06:35:24;24.58;;;5.40;;
6406;SDS011;3236;51.022;6.818;2023-04-25T06:37:51;11.55;;;3.97;;
6406;SDS011;3236;51.022;6.818;2023-04-25T06:40:18;11.55;;;4.70;;
6406;SDS011;3236;51.022;6.818;2023-04-25T06:42:46;17.98;;;4.57;;
6406;SDS011;3236;51.022;6.818;2023-04-25T06:45:13;23.13;;;7.47;;
6406;SDS011;3236;51.022;6.818;2023-04-25T06:47:40;14.70;;;4.85;;
6406;SDS011;3236;51.022;6.818;2023-04-25T06:50:09;15.13;;;3.33;;
6406;SDS011;3236;51.022;6.818;2023-04-25T06:52:37;14.45;;;4.30;;
6406;SDS011;3236;51.022;6.818;2023-04-25T06:55:04;18.92;;;4.07;;
6406;SDS011;3236;51.022;6.818;2023-04-25T06:57:32;13.35;;;3.55;;
6406;SDS011;3236;51.022;6.818;2023-04-25T06:59:59;15.75;;;3.30;;
6406;SDS011;3236;51.022;6.818;2023-04-25T07:02:26;18.20;;;4.00;;
6406;SDS011;3236;51.022;6.818;2023-04-25T07:04:54;19.58;;;3.67;;
6406;SDS011;3236;51.022;6.818;2023-04-25T07:07:26;18.58;;;3.80;;
6406;SDS011;3236;51.022;6.818;2023-04-25T07:09:54;13.00;;;3.45;;
6406;SDS011;3236;51.022;6.818;2023-04-25T07:12:22;15.35;;;3.70;;
6406;SDS011;3236;51.022;6.818;2023-04-25T07:14:49;19.33;;;4.72;;
6406;SDS011;3236;51.022;6.818;2023-04-25T07:17:16;17.77;;;4.43;;
6406;SDS011;3236;51.022;6.818;2023-04-25T07:19:44;15.52;;;3.45;;
6406;SDS011;3236;51.022;6.818;2023-04-25T07:22:11;6.30;;;2.92;;
6406;SDS011;3236;51.022;6.818;2023-04-25T07:24:42;19.13;;;4.47;;
6406;SDS011;3236;51.022;6.818;2023-04-25T07:27:13;16.73;;;4.63;;
6406;SDS011;3236;51.022;6.818;2023-04-25T07:29:42;17.85;;;4.20;;
6406;SDS011;3236;51.022;6.818;2023-04-25T07:32:09;19.08;;;3.95;;
6406;SDS011;3236;51.022;6.818;2023-04-25T07:34:41;13.35;;;3.13;;
6406;SDS011;3236;51.022;6.818;2023-04-25T07:37:09;17.23;;;4.18;;
6406;SDS011;3236;51.022;6.818;2023-04-25T07:39:36;16.23;;;3.28;;
6406;SDS011;3236;51.022;6.818;2023-04-25T07:42:05;12.00;;;3.28;;
6406;SDS011;3236;51.022;6.818;2023-04-25T07:44:33;17.13;;;3.80;;
6406;SDS011;3236;51.022;6.818;2023-04-25T07:47:07;16.58;;;3.92;;
6406;SDS011;3236;51.022;6.818;2023-04-25T07:49:41;12.48;;;3.33;;
6406;SDS011;3236;51.022;6.818;2023-04-25T07:57:14;11.30;;;2.80;;
6406;SDS011;3236;51.022;6.818;2023-04-25T07:59:42;9.85;;;2.72;;
6406;SDS011;3236;51.022;6.818;2023-04-25T08:02:09;14.27;;;3.40;;
6406;SDS011;3236;51.022;6.818;2023-04-25T08:04:38;14.05;;;3.13;;
6406;SDS011;3236;51.022;6.818;2023-04-25T08:07:05;16.25;;;3.47;;
6406;SDS011;3236;51.022;6.818;2023-04-25T08:09:32;15.68;;;3.10;;
6406;SDS011;3236;51.022;6.818;2023-04-25T08:12:06;14.63;;;3.78;;
6406;SDS011;3236;51.022;6.818;2023-04-25T08:14:35;13.07;;;3.70;;
6406;SDS011;3236;51.022;6.818;2023-04-25T08:17:09;11.15;;;3.15;;
6406;SDS011;3236;51.022;6.818;2023-04-25T08:19:36;10.13;;;2.95;;
6406;SDS011;3236;51.022;6.818;2023-04-25T08:22:10;9.93;;;2.58;;
6406;SDS011;3236;51.022;6.818;2023-04-25T08:24:37;12.73;;;3.38;;
6406;SDS011;3236;51.022;6.818;2023-04-25T08:27:04;7.85;;;2.35;;
6406;SDS011;3236;51.022;6.818;2023-04-25T08:29:41;13.07;;;2.78;;
6406;SDS011;3236;51.022;6.818;2023-04-25T08:32:08;9.43;;;2.38;;
6406;SDS011;3236;51.022;6.818;2023-04-25T08:34:36;6.55;;;2.40;;
6406;SDS011;3236;51.022;6.818;2023-04-25T08:37:07;15.75;;;3.33;;
6406;SDS011;3236;51.022;6.818;2023-04-25T08:39:44;8.80;;;2.58;;
6406;SDS011;3236;51.022;6.818;2023-04-25T08:42:13;12.13;;;3.17;;
6406;SDS011;3236;51.022;6.818;2023-04-25T08:44:54;11.55;;;2.50;;
6406;SDS011;3236;51.022;6.818;2023-04-25T08:47:23;11.25;;;3.10;;
6406;SDS011;3236;51.022;6.818;2023-04-25T08:49:50;10.68;;;2.65;;
6406;SDS011;3236;51.022;6.818;2023-04-25T08:52:22;8.55;;;2.72;;
6406;SDS011;3236;51.022;6.818;2023-04-25T08:54:50;11.57;;;2.63;;
6406;SDS011;3236;51.022;6.818;2023-04-25T08:57:19;7.35;;;2.53;;
6406;SDS011;3236;51.022;6.818;2023-04-25T08:59:50;9.90;;;3.30;;
6406;SDS011;3236;51.022;6.818;2023-04-25T09:02:33;7.68;;;2.50;;
6406;SDS011;3236;51.022;6.818;2023-04-25T09:05:01;7.70;;;2.47;;
6406;SDS011;3236;51.022;6.818;2023-04-25T09:07:29;12.95;;;2.53;;
6406;SDS011;3236;51.022;6.818;2023-04-25T09:09:56;16.17;;;3.40;;
6406;SDS011;3236;51.022;6.818;2023-04-25T09:12:24;15.10;;;2.75;;
6406;SDS011;3236;51.022;6.818;2023-04-25T09:15:05;12.40;;;3.03;;
6406;SDS011;3236;51.022;6.818;2023-04-25T09:17:33;8.20;;;2.30;;
6406;SDS011;3236;51.022;6.818;2023-04-25T09:20:05;10.82;;;2.38;;
6406;SDS011;3236;51.022;6.818;2023-04-25T09:22:34;8.90;;;2.08;;
6406;SDS011;3236;51.022;6.818;2023-04-25T09:25:02;13.40;;;2.80;;
6406;SDS011;3236;51.022;6.818;2023-04-25T09:27:34;6.18;;;2.30;;
6406;SDS011;3236;51.022;6.818;2023-04-25T09:30:29;15.43;;;2.28;;
6406;SDS011;3236;51.022;6.818;2023-04-25T09:33:04;9.73;;;2.15;;
6406;SDS011;3236;51.022;6.818;2023-04-25T09:35:36;9.02;;;2.95;;
6406;SDS011;3236;51.022;6.818;2023-04-25T09:38:10;7.80;;;2.67;;
6406;SDS011;3236;51.022;6.818;2023-04-25T09:40:39;8.30;;;1.90;;
6406;SDS011;3236;51.022;6.818;2023-04-25T09:43:10;9.30;;;2.75;;
6406;SDS011;3236;51.022;6.818;2023-04-25T09:45:48;7.78;;;1.90;;
6406;SDS011;3236;51.022;6.818;2023-04-25T09:48:22;8.20;;;2.05;;
6406;SDS011;3236;51.022;6.818;2023-04-25T09:51:06;6.93;;;1.90;;
6406;SDS011;3236;51.022;6.818;2023-04-25T09:53:34;10.98;;;2.25;;
6406;SDS011;3236;51.022;6.818;2023-04-25T09:56:03;7.82;;;2.03;;
6406;SDS011;3236;51.022;6.818;2023-04-25T09:58:32;10.10;;;1.98;;
6406;SDS011;3236;51.022;6.818;2023-04-25T10:01:12;7.25;;;1.90;;
6406;SDS011;3236;51.022;6.818;2023-04-25T10:03:43;6.47;;;1.73;;
6406;SDS011;3236;51.022;6.818;2023-04-25T10:06:19;8.95;;;1.90;;
6406;SDS011;3236;51.022;6.818;2023-04-25T10:08:56;4.53;;;1.73;;
6406;SDS011;3236;51.022;6.818;2023-04-25T10:11:29;5.68;;;1.58;;
6406;SDS011;3236;51.022;6.818;2023-04-25T10:13:58;7.13;;;1.70;;
6406;SDS011;3236;51.022;6.818;2023-04-25T10:16:28;6.18;;;1.48;;
6406;SDS011;3236;51.022;6.818;2023-04-25T10:18:58;8.02;;;1.60;;
6406;SDS011;3236;51.022;6.818;2023-04-25T10:21:26;9.27;;;1.67;;
6406;SDS011;3236;51.022;6.818;2023-04-25T10:23:57;5.30;;;1.77;;
6406;SDS011;3236;51.022;6.818;2023-04-25T10:26:27;3.80;;;1.60;;
6406;SDS011;3236;51.022;6.818;2023-04-25T10:28:58;9.45;;;1.83;;
6406;SDS011;3236;51.022;6.818;2023-04-25T10:31:28;4.38;;;1.48;;
6406;SDS011;3236;51.022;6.818;2023-04-25T10:34:00;6.45;;;1.40;;
6406;SDS011;3236;51.022;6.818;2023-04-25T10:36:31;5.37;;;1.80;;
6406;SDS011;3236;51.022;6.818;2023-04-25T10:39:02;9.60;;;1.70;;
6406;SDS011;3236;51.022;6.818;2023-04-25T10:41:33;5.43;;;1.83;;
6406;SDS011;3236;51.022;6.818;2023-04-25T10:44:13;8.13;;;1.90;;
6406;SDS011;3236;51.022;6.818;2023-04-25T10:46:42;11.40;;;1.90;;
6406;SDS011;3236;51.022;6.818;2023-04-25T10:49:30;8.82;;;1.98;;
6406;SDS011;3236;51.022;6.818;2023-04-25T10:52:14;4.18;;;1.30;;
6406;SDS011;3236;51.022;6.818;2023-04-25T10:54:51;3.83;;;1.17;;
6406;SDS011;3236;51.022;6.818;2023-04-25T10:57:32;7.90;;;1.83;;
6406;SDS011;3236;51.022;6.818;2023-04-25T11:00:10;11.23;;;1.98;;
6406;SDS011;3236;51.022;6.818;2023-04-25T11:02:56;6.78;;;1.45;;
6406;SDS011;3236;51.022;6.818;2023-04-25T11:05:34;8.13;;;1.80;;
6406;SDS011;3236;51.022;6.818;2023-04-25T11:08:17;5.43;;;1.52;;
6406;SDS011;3236;51.022;6.818;2023-04-25T11:10:59;6.90;;;1.47;;
6406;SDS011;3236;51.022;6.818;2023-04-25T11:13:28;6.85;;;2.10;;
6406;SDS011;3236;51.022;6.818;2023-04-25T11:15:56;5.75;;;1.77;;
6406;SDS011;3236;51.022;6.818;2023-04-25T11:18:28;6.72;;;1.95;;
6406;SDS011;3236;51.022;6.818;2023-04-25T11:20:58;7.38;;;1.35;;
6406;SDS011;3236;51.022;6.818;2023-04-25T11:23:25;10.68;;;1.70;;
6406;SDS011;3236;51.022;6.818;2023-04-25T11:25:52;4.93;;;1.40;;
6406;SDS011;3236;51.022;6.818;2023-04-25T11:28:37;9.85;;;2.15;;
6406;SDS011;3236;51.022;6.818;2023-04-25T11:31:04;6.07;;;1.33;;
6406;SDS011;3236;51.022;6.818;2023-04-25T11:33:42;3.72;;;1.25;;
6406;SDS011;3236;51.022;6.818;2023-04-25T11:36:13;5.85;;;1.80;;
6406;SDS011;3236;51.022;6.818;2023-04-25T11:38:41;10.82;;;1.88;;
6406;SDS011;3236;51.022;6.818;2023-04-25T11:41:08;5.45;;;1.20;;
6406;SDS011;3236;51.022;6.818;2023-04-25T11:43:36;8.55;;;1.48;;
6406;SDS011;3236;51.022;6.818;2023-04-25T11:46:06;3.35;;;1.05;;
6406;SDS011;3236;51.022;6.818;2023-04-25T11:48:36;2.92;;;1.60;;
6406;SDS011;3236;51.022;6.818;2023-04-25T11:51:06;2.55;;;0.80;;
6406;SDS011;3236;51.022;6.818;2023-04-25T11:53:34;3.47;;;1.33;;
6406;SDS011;3236;51.022;6.818;2023-04-25T11:56:01;3.83;;;1.20;;
6406;SDS011;3236;51.022;6.818;2023-04-25T12:01:27;4.38;;;1.52;;
6406;SDS011;3236;51.022;6.818;2023-04-25T12:03:55;5.18;;;1.88;;
6406;SDS011;3236;51.022;6.818;2023-04-25T12:06:27;3.17;;;1.23;;
6406;SDS011;3236;51.022;6.818;2023-04-25T12:09:04;4.13;;;1.48;;
6406;SDS011;3236;51.022;6.818;2023-04-25T12:11:40;6.75;;;1.52;;
6406;SDS011;3236;51.022;6.818;2023-04-25T12:14:20;7.20;;;1.83;;
6406;SDS011;3236;51.022;6.818;2023-04-25T12:16:49;6.65;;;1.30;;
6406;SDS011;3236;51.022;6.818;2023-04-25T12:19:22;5.90;;;1.80;;
6406;SDS011;3236;51.022;6.818;2023-04-25T12:21:52;7.50;;;1.73;;
6406;SDS011;3236;51.022;6.818;2023-04-25T12:24:23;9.80;;;1.42;;
6406;SDS011;3236;51.022;6.818;2023-04-25T12:26:52;4.00;;;1.40;;
6406;SDS011;3236;51.022;6.818;2023-04-25T12:29:33;6.17;;;1.57;;
6406;SDS011;3236;51.022;6.818;2023-04-25T12:32:03;4.88;;;1.45;;
6406;SDS011;3236;51.022;6.818;2023-04-25T12:34:39;1.88;;;1.02;;
6406;SDS011;3236;51.022;6.818;2023-04-25T12:37:09;9.60;;;1.80;;
6406;SDS011;3236;51.022;6.818;2023-04-25T12:39:43;3.30;;;1.33;;
6406;SDS011;3236;51.022;6.818;2023-04-25T12:42:11;4.78;;;1.95;;
6406;SDS011;3236;51.022;6.818;2023-04-25T12:44:39;5.93;;;1.48;;
6406;SDS011;3236;51.022;6.818;2023-04-25T12:47:10;5.13;;;2.00;;
6406;SDS011;3236;51.022;6.818;2023-04-25T12:49:37;3.15;;;1.80;;
6406;SDS011;3236;51.022;6.818;2023-04-25T12:52:17;5.82;;;1.92;;
6406;SDS011;3236;51.022;6.818;2023-04-25T12:54:47;3.80;;;1.30;;
6406;SDS011;3236;51.022;6.818;2023-04-25T12:57:15;1.85;;;1.10;;
6406;SDS011;3236;51.022;6.818;2023-04-25T12:59:42;4.47;;;1.60;;
6406;SDS011;3236;51.022;6.818;2023-04-25T13:02:10;6.00;;;1.63;;
6406;SDS011;3236;51.022;6.818;2023-04-25T13:04:40;3.65;;;1.40;;
6406;SDS011;3236;51.022;6.818;2023-04-25T13:07:10;5.72;;;1.52;;
6406;SDS011;3236;51.022;6.818;2023-04-25T13:09:39;6.75;;;1.30;;
6406;SDS011;3236;51.022;6.818;2023-04-25T13:12:09;4.50;;;1.20;;
6406;SDS011;3236;51.022;6.818;2023-04-25T13:14:36;3.50;;;1.23;;
6406;SDS011;3236;51.022;6.818;2023-04-25T13:17:04;4.75;;;1.15;;
6406;SDS011;3236;51.022;6.818;2023-04-25T13:19:31;1.58;;;1.08;;
6406;SDS011;3236;51.022;6.818;2023-04-25T13:21:58;2.50;;;1.00;;
6406;SDS011;3236;51.022;6.818;2023-04-25T13:24:26;4.30;;;1.00;;
6406;SDS011;3236;51.022;6.818;2023-04-25T13:26:59;2.22;;;1.17;;
6406;SDS011;3236;51.022;6.818;2023-04-25T13:29:30;3.67;;;1.10;;
6406;SDS011;3236;51.022;6.818;2023-04-25T13:31:59;2.55;;;1.00;;
6406;SDS011;3236;51.022;6.818;2023-04-25T13:34:28;5.13;;;1.38;;
6406;SDS011;3236;51.022;6.818;2023-04-25T13:36:55;3.42;;;0.98;;
6406;SDS011;3236;51.022;6.818;2023-04-25T13:42:40;2.53;;;1.05;;
6406;SDS011;3236;51.022;6.818;2023-04-25T13:51:31;4.53;;;1.10;;
6406;SDS011;3236;51.022;6.818;2023-04-25T13:54:02;4.03;;;1.25;;
6406;SDS011;3236;51.022;6.818;2023-04-25T13:56:30;2.15;;;1.20;;
6406;SDS011;3236;51.022;6.818;2023-04-25T13:58:58;3.63;;;1.00;;
6406;SDS011;3236;51.022;6.818;2023-04-25T14:01:25;2.47;;;1.23;;
6406;SDS011;3236;51.022;6.818;2023-04-25T14:03:53;2.67;;;1.60;;
6406;SDS011;3236;51.022;6.818;2023-04-25T14:06:20;3.85;;;1.02;;
6406;SDS011;3236;51.022;6.818;2023-04-25T14:08:50;2.38;;;1.20;;
6406;SDS011;3236;51.022;6.818;2023-04-25T14:11:17;2.00;;;0.90;;
6406;SDS011;3236;51.022;6.818;2023-04-25T14:13:44;4.57;;;0.90;;
6406;SDS011;3236;51.022;6.818;2023-04-25T14:16:12;1.58;;;0.90;;
6406;SDS011;3236;51.022;6.818;2023-04-25T14:18:40;3.28;;;1.30;;
6406;SDS011;3236;51.022;6.818;2023-04-25T14:21:07;3.72;;;1.10;;
6406;SDS011;3236;51.022;6.818;2023-04-25T14:23:35;4.53;;;0.98;;
6406;SDS011;3236;51.022;6.818;2023-04-25T14:26:04;3.22;;;1.45;;
6406;SDS011;3236;51.022;6.818;2023-04-25T14:28:31;3.30;;;1.20;;
6406;SDS011;3236;51.022;6.818;2023-04-25T14:31:01;2.50;;;0.85;;
6406;SDS011;3236;51.022;6.818;2023-04-25T14:33:29;6.55;;;1.48;;
6406;SDS011;3236;51.022;6.818;2023-04-25T14:35:56;3.08;;;1.25;;
6406;SDS011;3236;51.022;6.818;2023-04-25T14:38:24;6.40;;;1.23;;
6406;SDS011;3236;51.022;6.818;2023-04-25T14:40:52;9.23;;;1.80;;
6406;SDS011;3236;51.022;6.818;2023-04-25T14:43:20;3.58;;;0.90;;
6406;SDS011;3236;51.022;6.818;2023-04-25T14:45:47;4.03;;;1.33;;
6406;SDS011;3236;51.022;6.818;2023-04-25T14:48:15;6.47;;;1.45;;
6406;SDS011;3236;51.022;6.818;2023-04-25T14:50:44;6.63;;;1.27;;
6406;SDS011;3236;51.022;6.818;2023-04-25T14:53:13;7.05;;;1.25;;
6406;SDS011;3236;51.022;6.818;2023-04-25T14:55:44;2.40;;;1.23;;
6406;SDS011;3236;51.022;6.818;2023-04-25T14:58:13;5.85;;;1.63;;
6406;SDS011;3236;51.022;6.818;2023-04-25T15:00:42;5.80;;;1.27;;
6406;SDS011;3236;51.022;6.818;2023-04-25T15:03:17;5.38;;;1.00;;
6406;SDS011;3236;51.022;6.818;2023-04-25T15:05:50;6.43;;;1.88;;
6406;SDS011;3236;51.022;6.818;2023-04-25T15:08:18;4.82;;;1.30;;
6406;SDS011;3236;51.022;6.818;2023-04-25T15:10:45;1.60;;;1.00;;
6406;SDS011;3236;51.022;6.818;2023-04-25T15:13:13;5.75;;;1.80;;
6406;SDS011;3236;51.022;6.818;2023-04-25T15:15:42;4.85;;;1.40;;
6406;SDS011;3236;51.022;6.818;2023-04-25T15:18:09;4.75;;;1.30;;
6406;SDS011;3236;51.022;6.818;2023-04-25T15:20:36;3.95;;;1.60;;
6406;SDS011;3236;51.022;6.818;2023-04-25T15:23:04;5.50;;;1.67;;
6406;SDS011;3236;51.022;6.818;2023-04-25T15:25:31;4.88;;;1.30;;
6406;SDS011;3236;51.022;6.818;2023-04-25T15:27:58;3.28;;;1.38;;
6406;SDS011;3236;51.022;6.818;2023-04-25T15:30:28;5.45;;;1.80;;
6406;SDS011;3236;51.022;6.818;2023-04-25T15:32:57;6.40;;;1.70;;
6406;SDS011;3236;51.022;6.818;2023-04-25T15:35:27;6.90;;;1.88;;
6406;SDS011;3236;51.022;6.818;2023-04-25T15:37:54;6.30;;;1.90;;